Details From KOPF - Opa Locka
To MYNN - Nassau Intl
Flight Number -
Tags Real Decoded
Created
Modified
Stats Distance 161 nm / 297 km
Max Altitude 0 ft / 0 m
Waypoints 2
Social Downloads 5
Likes 0
Share VATSIM

Download

Looking for another format? Having issues loading an existing format? Contact us
Advertisement - Login to hide

Notes

Decoded

Route

KOPF MYNN

ID Type Via Altitude Latitude Longitude Leg Dist Tot Dist Heading (true) Name
O KOPF APT - 0 ft / 0 m 25.89904˚ -80.28516˚ - 0 nm - -
O MYNN APT - 0 ft / 0 m 25.03595˚ -77.48200˚ 160 nm 160 nm 108° / 109° -

Altitude Profile

Advertisement - Login to hide

KOPF

Details ICAO KOPF (OPF)
Name Opa Locka
Region United States
Timezone America/New_York (UTC-5.0)
Stats Elevation 8 ft / 2 m (AMSL)
Location 25.906087° -80.278378°
Runways 3
Magnetic Variation 6.665° W

METAR

KOPF 180853Z AUTO 00000KT 6SM BR CLR 19/19 A3020 RMK AO2 SLP227 T01940194 55004

Decode

TAF

TAF AMD KOPF 180902Z 1809/1906 10003KT P6SM FEW025 BKN050 BKN250 FM181500 10010KT P6SM FEW015 SCT030 BKN050 FM182300 09004KT P6SM FEW025 SCT050

Decode

Departure Runways

ID Width Length Bearing (true) Bearing (mag) Surface Threshold Offset Overrun Length
09L 151 ft / 46 m 7,990 ft / 2,435 m 86.92° 93.59° Asphalt 0 ft / 0 m 190 ft / 58 m
09R 98 ft / 30 m 4,300 ft / 1,311 m 86.93° 93.60° Asphalt 0 ft / 0 m 0 ft / 0 m
12 151 ft / 46 m 6,800 ft / 2,073 m 121.96° 128.63° Asphalt 801 ft / 244 m 197 ft / 60 m
27L 98 ft / 30 m 4,300 ft / 1,311 m 266.93° 273.60° Asphalt 0 ft / 0 m 0 ft / 0 m
27R 151 ft / 46 m 7,990 ft / 2,435 m 266.93° 273.60° Asphalt 0 ft / 0 m 187 ft / 57 m
30 151 ft / 46 m 6,800 ft / 2,073 m 301.97° 308.64° Asphalt 0 ft / 0 m 190 ft / 58 m

MYNN

Details ICAO MYNN (NAS)
Name Nassau Intl
Region Bahamas
Timezone America/Nassau (UTC-5.0)
Stats Elevation 16 ft / 5 m (AMSL)
Location 25.038596° -77.466621°
Runways 2
Magnetic Variation 8.219° W

METAR

MYNN 180900Z 06003KT 9999 FEW025 23/22 A3020

Decode

TAF

TAF MYNN 180515Z 1806/1906 06004KT 9999 FEW025 SCT040 BECMG 1816/1818 09010KT

Decode

Destination Runways

ID Width Length Bearing (true) Bearing (mag) Surface Threshold Offset Overrun Length
09 151 ft / 46 m 8,311 ft / 2,533 m 89.62° 97.84° Asphalt 0 ft / 0 m 0 ft / 0 m
14 151 ft / 46 m 11,364 ft / 3,464 m 134.83° 143.05° Asphalt 226 ft / 69 m 0 ft / 0 m
27 151 ft / 46 m 8,311 ft / 2,533 m 269.64° 277.86° Asphalt 0 ft / 0 m 0 ft / 0 m
32 151 ft / 46 m 11,364 ft / 3,464 m 314.84° 323.06° Asphalt 0 ft / 0 m 0 ft / 0 m

Approach Navaids

Runway Type Ident Frequency Range Bearing (true) Bearing (mag) Slope Elevation
14 Localiser IZQA 110.10 MHz 18 nm / 33 km 134.83° 143.05° - 7 ft / 2 m (AMSL)
14 Glidescope IZQA 110.10 MHz 10 nm / 19 km 134.83° 143.05° 3.00° 8 ft / 2 m (AMSL)

Popular Alternatives